Time;durP1;ratioP1;P1;durP2;ratioP2;P2;SDS_P1;SDS_P2;PMS_P1;PMS_P2;Temp;Humidity;BMP_temperature;BMP_pressure;BME280_temperature;BME280_humidity;BME280_pressure;Samples;Min_cycle;Max_cycle;Signal;HPM_P1;HPM_P2
2023/03/24 00:00:43;;;;;;;14.27;5.28;;;11.90;99.90;;;;;;5074477;28;20497;-60
2023/03/24 00:03:09;;;;;;;10.07;4.95;;;12.00;99.90;;;;;;5074978;28;20032;-59
2023/03/24 00:05:35;;;;;;;11.55;4.85;;;11.80;99.90;;;;;;5074717;28;20032;-59
2023/03/24 00:08:02;;;;;;;9.93;4.72;;;11.70;99.90;;;;;;5074715;28;20124;-59
2023/03/24 00:10:33;;;;;;;10.23;4.85;;;12.00;99.90;;;;;;5074587;28;20111;-60
2023/03/24 00:12:59;;;;;;;10.07;5.30;;;11.70;99.90;;;;;;5078391;28;20036;-61
2023/03/24 00:15:26;;;;;;;9.85;5.32;;;12.00;99.90;;;;;;5074444;28;20478;-60
2023/03/24 00:17:52;;;;;;;13.85;5.20;;;11.80;99.90;;;;;;5081055;28;20053;-60
2023/03/24 00:20:20;;;;;;;11.82;5.20;;;11.70;99.90;;;;;;5093121;28;20401;-61
2023/03/24 00:22:49;;;;;;;15.98;5.35;;;11.90;99.90;;;;;;5093086;28;20097;-61
2023/03/24 00:25:17;;;;;;;10.30;4.45;;;12.00;99.90;;;;;;5094727;28;20367;-60
2023/03/24 00:27:43;;;;;;;10.68;4.85;;;11.70;99.90;;;;;;5093100;28;20077;-60
2023/03/24 00:30:10;;;;;;;12.80;4.95;;;11.80;99.90;;;;;;5094424;28;20040;-59
2023/03/24 00:32:37;;;;;;;8.05;5.20;;;11.90;99.90;;;;;;5094481;28;20044;-59
2023/03/24 00:35:05;;;;;;;11.45;5.03;;;11.70;99.90;;;;;;5094256;28;20063;-59
2023/03/24 00:37:31;;;;;;;7.35;4.40;;;11.70;99.90;;;;;;5094052;28;20043;-60
2023/03/24 00:39:58;;;;;;;8.85;5.05;;;11.80;99.90;;;;;;5094192;28;20040;-59
2023/03/24 00:42:24;;;;;;;10.23;4.75;;;11.70;99.90;;;;;;5094231;28;20100;-60
2023/03/24 00:44:52;;;;;;;9.40;4.63;;;12.00;99.90;;;;;;5094285;28;20393;-60
2023/03/24 00:47:25;;;;;;;9.50;4.93;;;11.70;99.90;;;;;;5093905;28;20165;-60
2023/03/24 00:49:53;;;;;;;9.13;4.72;;;11.70;99.90;;;;;;5094102;28;20051;-60
2023/03/24 00:52:23;;;;;;;9.23;4.10;;;11.70;99.90;;;;;;5094374;28;20040;-59
2023/03/24 00:54:53;;;;;;;8.35;4.25;;;11.60;99.90;;;;;;5094146;28;20385;-60
2023/03/24 00:57:20;;;;;;;9.23;4.30;;;11.90;99.90;;;;;;5094079;28;20386;-60
2023/03/24 00:59:47;;;;;;;9.23;4.57;;;11.70;99.90;;;;;;5094036;28;20048;-59
2023/03/24 01:02:21;;;;;;;9.55;4.38;;;11.60;99.90;;;;;;5094063;28;20039;-60
2023/03/24 01:04:52;;;;;;;8.40;4.13;;;11.80;99.90;;;;;;5092355;28;20051;-60
2023/03/24 01:07:20;;;;;;;6.45;4.15;;;11.80;99.90;;;;;;5093839;28;20050;-59
2023/03/24 01:09:58;;;;;;;10.02;4.43;;;11.60;99.90;;;;;;5092198;28;20043;-60
2023/03/24 01:12:34;;;;;;;9.77;4.35;;;11.60;99.90;;;;;;5093971;28;20039;-59
2023/03/24 01:15:01;;;;;;;8.52;4.25;;;11.60;99.90;;;;;;5093592;28;20425;-59
2023/03/24 01:17:28;;;;;;;10.57;4.43;;;11.70;99.90;;;;;;5093465;28;20032;-59
2023/03/24 01:19:55;;;;;;;11.52;4.93;;;11.70;99.90;;;;;;5093599;28;20040;-59
2023/03/24 01:22:25;;;;;;;11.65;5.03;;;11.80;99.90;;;;;;5093442;28;20047;-59
2023/03/24 01:24:51;;;;;;;9.25;4.65;;;11.90;99.90;;;;;;5093641;28;20036;-59
2023/03/24 01:27:17;;;;;;;9.90;4.25;;;11.80;99.90;;;;;;5093522;28;20047;-60
2023/03/24 01:29:43;;;;;;;5.57;3.50;;;11.80;99.90;;;;;;5088391;28;20028;-60
2023/03/24 01:32:09;;;;;;;10.00;4.40;;;11.70;99.90;;;;;;5073353;28;20036;-59
2023/03/24 01:34:34;;;;;;;10.63;3.90;;;11.60;99.90;;;;;;5072834;28;20033;-59
2023/03/24 01:37:01;;;;;;;8.63;4.80;;;11.90;99.90;;;;;;5073258;28;20437;-59
2023/03/24 01:39:26;;;;;;;12.80;4.60;;;11.80;99.90;;;;;;5072900;28;20040;-58
2023/03/24 01:41:52;;;;;;;8.90;4.18;;;11.90;99.90;;;;;;5071516;28;20056;-59
2023/03/24 01:44:37;;;;;;;8.32;4.10;;;11.90;99.90;;;;;;5071868;28;20482;-59
2023/03/24 01:47:06;;;;;;;12.52;5.07;;;11.60;99.90;;;;;;5080064;28;20088;-59
2023/03/24 01:49:46;;;;;;;7.65;3.85;;;11.60;99.90;;;;;;5093452;28;20040;-59
2023/03/24 01:52:35;;;;;;;8.27;4.43;;;11.90;99.90;;;;;;5093496;28;20032;-59
2023/03/24 01:55:10;;;;;;;6.53;4.28;;;11.60;99.90;;;;;;5093086;28;20398;-60
2023/03/24 01:57:40;;;;;;;6.35;4.00;;;11.60;99.90;;;;;;5092738;28;20119;-58
2023/03/24 02:00:10;;;;;;;8.80;4.20;;;11.70;99.90;;;;;;5093094;28;20048;-58
2023/03/24 02:02:39;;;;;;;8.10;4.13;;;11.50;99.90;;;;;;5082067;28;20045;-60
2023/03/24 02:05:09;;;;;;;8.75;4.25;;;11.90;99.90;;;;;;5072708;28;20041;-58
2023/03/24 02:07:45;;;;;;;7.43;3.75;;;11.90;99.90;;;;;;5072711;28;20047;-58
2023/03/24 02:10:14;;;;;;;6.05;4.05;;;11.60;99.90;;;;;;5072380;28;20040;-59
2023/03/24 02:12:43;;;;;;;;;;;11.90;99.90;;;;;;5073213;28;20035;-59
2023/03/24 02:15:10;;;;;;;5.40;3.80;;;11.90;99.90;;;;;;5072438;28;20366;-59
2023/03/24 02:17:53;;;;;;;7.47;4.50;;;11.60;99.90;;;;;;5088210;28;20119;-59
2023/03/24 02:20:49;;;;;;;5.97;3.60;;;11.80;99.90;;;;;;5072813;28;20048;-60
2023/03/24 02:23:33;;;;;;;8.85;4.03;;;11.60;99.90;;;;;;5072296;28;20127;-59
2023/03/24 02:26:09;;;;;;;8.15;3.65;;;11.80;99.90;;;;;;5072790;28;20040;-61
2023/03/24 02:28:57;;;;;;;7.97;4.10;;;11.60;99.90;;;;;;5072593;28;20119;-59
2023/03/24 02:31:49;;;;;;;4.55;3.35;;;11.70;99.90;;;;;;5087740;28;20036;-59
2023/03/24 02:34:39;;;;;;;8.00;4.10;;;11.60;99.90;;;;;;5092562;28;20039;-59
2023/03/24 02:37:26;;;;;;;6.72;3.90;;;11.90;99.90;;;;;;5092800;28;20055;-59
2023/03/24 02:40:18;;;;;;;5.30;3.83;;;12.00;99.90;;;;;;5092999;28;20040;-59
2023/03/24 02:43:01;;;;;;;7.57;3.92;;;11.90;99.90;;;;;;5092692;28;20414;-59
2023/03/24 02:45:35;;;;;;;5.85;4.13;;;11.90;99.90;;;;;;5078669;28;20119;-59
2023/03/24 02:48:17;;;;;;;7.05;3.50;;;12.10;99.90;;;;;;5072690;28;20040;-59
2023/03/24 02:51:11;;;;;;;7.00;3.65;;;12.00;99.90;;;;;;5072268;28;20474;-59
2023/03/24 02:54:11;;;;;;;5.03;3.65;;;11.80;99.90;;;;;;5071587;28;20128;-58
2023/03/24 02:57:07;;;;;;;7.25;3.75;;;12.00;99.90;;;;;;5072528;28;20041;-59
2023/03/24 02:59:58;;;;;;;6.05;3.55;;;11.80;99.90;;;;;;4990892;28;20104;-59
2023/03/24 03:02:29;;;;;;;5.80;3.75;;;11.80;99.90;;;;;;4991147;28;20137;-59
2023/03/24 03:05:05;;;;;;;6.63;3.22;;;12.10;99.90;;;;;;4974815;28;20062;-59
2023/03/24 03:07:36;;;;;;;7.40;3.83;;;12.20;99.90;;;;;;4990866;28;20113;-59
2023/03/24 03:10:20;;;;;;;4.70;3.20;;;12.20;99.90;;;;;;4991930;28;20046;-60
2023/03/24 03:12:51;;;;;;;6.50;3.50;;;12.10;99.90;;;;;;4994535;28;20042;-57
2023/03/24 03:15:26;;;;;;;5.93;3.50;;;12.20;99.90;;;;;;4994404;28;20046;-59
2023/03/24 03:18:04;;;;;;;6.30;3.50;;;12.20;99.90;;;;;;5011642;28;20053;-59
2023/03/24 03:20:37;;;;;;;6.80;3.63;;;12.20;99.90;;;;;;5013839;28;20042;-59
2023/03/24 03:23:08;;;;;;;4.60;3.33;;;12.00;99.90;;;;;;5013697;28;20046;-59
2023/03/24 03:25:41;;;;;;;4.00;2.90;;;12.20;99.90;;;;;;5013831;28;20115;-59
2023/03/24 03:28:09;;;;;;;3.83;3.00;;;11.90;99.90;;;;;;5012661;28;20435;-59
2023/03/24 03:30:40;;;;;;;4.95;3.05;;;12.10;99.90;;;;;;5013294;28;20054;-60
2023/03/24 03:33:24;;;;;;;6.78;3.10;;;12.20;99.90;;;;;;5013421;28;20041;-60
2023/03/24 03:36:08;;;;;;;8.10;2.75;;;12.20;99.90;;;;;;5026730;28;20055;-59
2023/03/24 03:38:57;;;;;;;4.70;2.33;;;12.00;99.90;;;;;;5075292;28;20486;-58
2023/03/24 03:41:23;;;;;;;4.43;2.33;;;11.70;99.90;;;;;;5075159;28;20063;-58
2023/03/24 03:43:49;;;;;;;4.72;2.22;;;11.70;99.90;;;;;;5075730;28;20056;-59
2023/03/24 03:46:17;;;;;;;9.10;2.50;;;11.80;99.90;;;;;;5085763;28;20044;-59
2023/03/24 03:48:43;;;;;;;3.35;2.35;;;11.50;99.90;;;;;;5095321;28;20686;-59
2023/03/24 03:51:10;;;;;;;9.05;3.17;;;11.50;99.90;;;;;;5095545;28;20070;-59
2023/03/24 03:53:50;;;;;;;6.63;2.33;;;11.50;99.90;;;;;;5095657;28;20028;-59
2023/03/24 03:56:19;;;;;;;5.55;2.03;;;11.60;99.90;;;;;;5094158;28;20141;-58
2023/03/24 03:58:46;;;;;;;;;;;11.50;99.90;;;;;;5096116;28;20131;-59
2023/03/24 04:01:18;;;;;;;7.38;2.10;;;11.30;99.90;;;;;;5081356;28;19917;-59
2023/03/24 04:03:50;;;;;;;8.70;1.88;;;11.30;99.90;;;;;;5075413;28;20661;-59
2023/03/24 04:06:34;;;;;;;7.63;1.92;;;11.20;99.90;;;;;;5075169;28;20049;-59
2023/03/24 04:09:23;;;;;;;11.05;1.80;;;11.10;99.90;;;;;;5074998;28;20040;-59
2023/03/24 04:12:03;;;;;;;5.57;1.38;;;11.10;99.90;;;;;;5075034;28;20047;-59
2023/03/24 04:15:06;;;;;;;9.70;1.80;;;11.10;99.90;;;;;;5074847;28;20100;-59
2023/03/24 04:17:31;;;;;;;4.55;1.55;;;11.10;99.90;;;;;;5074946;28;20033;-59
2023/03/24 04:20:04;;;;;;;8.20;1.83;;;11.20;99.90;;;;;;5088733;28;20500;-59
2023/03/24 04:23:02;;;;;;;8.50;1.58;;;11.00;99.90;;;;;;5094652;28;20040;-59
2023/03/24 04:25:55;;;;;;;5.50;1.42;;;11.00;99.90;;;;;;5095239;28;20048;-58
2023/03/24 04:28:30;;;;;;;8.85;1.40;;;11.00;99.90;;;;;;5093259;28;20497;-60
2023/03/24 04:31:06;;;;;;;11.35;2.35;;;10.90;99.90;;;;;;5094675;28;20094;-60
2023/03/24 04:33:57;;;;;;;9.05;1.73;;;10.70;99.90;;;;;;5094774;28;20036;-59
2023/03/24 04:36:49;;;;;;;8.98;1.38;;;10.80;99.90;;;;;;5094802;28;20089;-59
2023/03/24 04:39:26;;;;;;;13.25;1.60;;;10.70;99.90;;;;;;5094498;28;20044;-59
2023/03/24 04:41:55;;;;;;;9.82;2.03;;;10.60;99.90;;;;;;5094272;28;20056;-59
2023/03/24 04:44:22;;;;;;;6.85;1.38;;;10.50;99.90;;;;;;5094745;28;20055;-59
2023/03/24 04:46:50;;;;;;;7.93;2.05;;;10.40;99.90;;;;;;5089471;28;20411;-59
2023/03/24 04:49:18;;;;;;;6.22;1.42;;;10.50;99.90;;;;;;5092949;28;20056;-59
2023/03/24 04:51:44;;;;;;;7.50;1.42;;;10.40;99.90;;;;;;5094375;28;20040;-59
2023/03/24 04:54:10;;;;;;;8.85;1.55;;;10.40;99.90;;;;;;5078412;28;20043;-59
2023/03/24 04:56:50;;;;;;;8.35;1.67;;;10.40;99.90;;;;;;5074097;28;20051;-59
2023/03/24 04:59:17;;;;;;;10.77;2.08;;;10.30;99.90;;;;;;5073706;28;20487;-59
2023/03/24 05:01:48;;;;;;;11.35;1.65;;;10.20;99.90;;;;;;5073588;28;20475;-59
2023/03/24 05:04:15;;;;;;;10.02;2.03;;;10.20;99.90;;;;;;5073545;28;20101;-59
2023/03/24 05:06:41;;;;;;;8.82;1.90;;;10.20;99.90;;;;;;5073870;28;20040;-59
2023/03/24 05:09:06;;;;;;;10.40;2.15;;;10.10;99.90;;;;;;5073931;28;20375;-59
2023/03/24 05:11:32;;;;;;;9.13;1.85;;;10.10;99.90;;;;;;5073398;28;20037;-59
2023/03/24 05:13:58;;;;;;;13.63;2.35;;;10.10;99.90;;;;;;5073877;28;20033;-59
2023/03/24 05:16:24;;;;;;;11.30;2.15;;;10.00;99.90;;;;;;5072245;28;20079;-59
2023/03/24 05:18:49;;;;;;;12.07;2.90;;;10.10;99.90;;;;;;5094469;28;20079;-60
2023/03/24 05:21:15;;;;;;;11.05;2.47;;;10.00;99.90;;;;;;5114168;28;20047;-58
2023/03/24 05:23:41;;;;;;;11.95;2.95;;;10.00;99.90;;;;;;5094001;28;20382;-59
2023/03/24 05:26:06;;;;;;;12.75;2.30;;;10.00;99.90;;;;;;5073128;28;20123;-59
2023/03/24 05:28:32;;;;;;;20.50;2.92;;;10.10;99.90;;;;;;5089336;28;20035;-58
2023/03/24 05:30:59;;;;;;;12.75;2.95;;;10.10;99.90;;;;;;5113812;28;20032;-59
2023/03/24 05:33:24;;;;;;;12.25;2.53;;;9.90;99.90;;;;;;5112834;28;20041;-59
2023/03/24 05:35:50;;;;;;;15.05;2.75;;;9.90;99.90;;;;;;5113597;28;20032;-60
2023/03/24 05:38:16;;;;;;;19.55;4.20;;;10.10;99.90;;;;;;5113530;28;20047;-59
2023/03/24 05:40:41;;;;;;;12.88;2.97;;;10.00;99.90;;;;;;5113476;28;20047;-59
2023/03/24 05:43:07;;;;;;;15.27;3.28;;;10.10;99.90;;;;;;5113456;28;20039;-58
2023/03/24 05:45:33;;;;;;;9.55;3.40;;;10.10;99.90;;;;;;5113660;28;20039;-59
2023/03/24 05:47:59;;;;;;;12.25;2.80;;;10.10;99.90;;;;;;5113778;28;20071;-59
2023/03/24 05:50:25;;;;;;;14.75;3.42;;;10.20;99.90;;;;;;5112393;28;20473;-59
2023/03/24 05:52:51;;;;;;;16.67;2.88;;;10.10;99.90;;;;;;5113522;28;20027;-59
2023/03/24 05:55:18;;;;;;;17.98;4.28;;;10.10;99.90;;;;;;5113486;28;20046;-58
2023/03/24 05:57:44;;;;;;;9.77;2.78;;;10.10;99.90;;;;;;5112744;28;20036;-59
2023/03/24 06:00:15;;;;;;;17.25;3.67;;;10.10;99.90;;;;;;5090768;28;20050;-59
2023/03/24 06:02:43;;;;;;;13.50;3.35;;;10.10;99.90;;;;;;5092809;28;20043;-59
2023/03/24 06:05:09;;;;;;;16.92;3.40;;;10.20;99.90;;;;;;5092850;28;20148;-59
2023/03/24 06:07:41;;;;;;;14.75;2.85;;;10.10;99.90;;;;;;5093196;28;20077;-58
2023/03/24 06:10:08;;;;;;;10.63;2.90;;;10.00;99.90;;;;;;5092938;28;20040;-59
2023/03/24 06:12:34;;;;;;;17.70;3.80;;;10.10;99.90;;;;;;5093007;28;20044;-59
2023/03/24 06:15:00;;;;;;;13.50;3.25;;;10.20;99.90;;;;;;5093008;28;20414;-59
2023/03/24 06:17:28;;;;;;;13.00;2.88;;;10.00;99.90;;;;;;5092708;28;20085;-59
2023/03/24 06:20:02;;;;;;;14.82;2.47;;;10.10;99.90;;;;;;5093012;28;20055;-59
2023/03/24 06:22:30;;;;;;;11.25;3.13;;;10.00;99.90;;;;;;5092874;28;20040;-59
2023/03/24 06:24:57;;;;;;;16.02;3.10;;;10.10;99.90;;;;;;5091368;28;20044;-61
2023/03/24 06:27:24;;;;;;;9.88;2.40;;;10.00;99.90;;;;;;5092827;28;20144;-59
2023/03/24 06:29:52;;;;;;;13.63;2.58;;;10.00;99.90;;;;;;5092257;28;20040;-60
2023/03/24 06:32:20;;;;;;;13.38;2.72;;;10.00;99.90;;;;;;5092774;28;20047;-59
2023/03/24 06:34:46;;;;;;;23.45;4.65;;;10.10;99.90;;;;;;5092369;28;20083;-59
2023/03/24 06:37:12;;;;;;;12.40;3.22;;;10.00;99.90;;;;;;5090259;28;20458;-59
2023/03/24 06:39:38;;;;;;;17.67;2.92;;;10.10;99.90;;;;;;5090647;28;20048;-60
2023/03/24 06:42:04;;;;;;;16.48;2.97;;;10.10;99.90;;;;;;5091840;28;20090;-59
2023/03/24 06:44:30;;;;;;;13.02;2.35;;;10.00;99.90;;;;;;5094516;28;20085;-59
2023/03/24 06:46:55;;;;;;;14.73;3.38;;;10.10;99.90;;;;;;5096426;28;20248;-59
2023/03/24 06:49:21;;;;;;;19.33;2.75;;;10.00;99.90;;;;;;5096401;28;20051;-59
2023/03/24 06:51:47;;;;;;;14.60;2.42;;;10.10;99.90;;;;;;5096140;28;20412;-59
2023/03/24 06:54:12;;;;;;;13.02;3.17;;;10.00;99.90;;;;;;5108955;28;20054;-59
2023/03/24 06:56:38;;;;;;;14.35;2.55;;;10.10;99.90;;;;;;5115216;28;20883;-59
2023/03/24 06:59:04;;;;;;;17.08;3.55;;;10.10;99.90;;;;;;5116751;28;20448;-59
2023/03/24 07:01:30;;;;;;;10.80;2.78;;;10.20;99.90;;;;;;5116467;28;20355;-59
2023/03/24 07:03:55;;;;;;;18.95;3.35;;;10.20;99.90;;;;;;5101779;28;20075;-59
2023/03/24 07:06:22;;;;;;;21.55;3.45;;;10.10;99.90;;;;;;5096178;28;20424;-59
2023/03/24 07:08:48;;;;;;;14.25;3.05;;;10.20;99.90;;;;;;5095815;28;20036;-59
2023/03/24 07:11:15;;;;;;;12.38;2.65;;;10.20;99.90;;;;;;5095660;28;20042;-60
2023/03/24 07:13:40;;;;;;;13.93;2.58;;;10.30;99.90;;;;;;5096124;28;20072;-59
2023/03/24 07:16:07;;;;;;;16.50;3.67;;;10.20;99.90;;;;;;5091979;28;20103;-59
2023/03/24 07:18:33;;;;;;;17.48;3.30;;;10.30;99.90;;;;;;5075789;28;20029;-59
2023/03/24 07:20:58;;;;;;;13.50;2.58;;;10.20;99.90;;;;;;5074336;28;20048;-59
2023/03/24 07:23:26;;;;;;;18.55;3.25;;;10.20;99.90;;;;;;5079372;28;20550;-59
2023/03/24 07:25:52;;;;;;;16.45;3.13;;;10.40;99.90;;;;;;5095747;28;20032;-59
2023/03/24 07:28:17;;;;;;;23.13;4.07;;;10.30;99.90;;;;;;5095960;28;20093;-59
2023/03/24 07:30:43;;;;;;;14.82;2.97;;;10.40;99.90;;;;;;5088336;28;20039;-59
2023/03/24 07:33:11;;;;;;;19.05;3.83;;;10.40;99.90;;;;;;5075347;28;20501;-59
2023/03/24 07:35:37;;;;;;;18.02;3.45;;;10.40;99.90;;;;;;5075015;28;20097;-59
2023/03/24 07:38:03;;;;;;;20.30;3.38;;;10.50;99.90;;;;;;5074846;28;20423;-59
2023/03/24 07:40:29;;;;;;;26.13;3.92;;;10.50;99.90;;;;;;5085148;28;20165;-61
2023/03/24 07:42:59;;;;;;;18.50;3.05;;;10.50;99.90;;;;;;5115850;28;20051;-60
2023/03/24 07:45:26;;;;;;;21.13;3.78;;;10.40;99.90;;;;;;5114273;28;20415;-59
2023/03/24 07:47:51;;;;;;;19.40;3.25;;;10.40;99.90;;;;;;5115907;28;20085;-59
2023/03/24 07:50:17;;;;;;;20.55;3.78;;;10.50;99.90;;;;;;5100605;28;20036;-60
2023/03/24 07:52:48;;;;;;;17.02;3.47;;;10.50;99.90;;;;;;5073912;28;20114;-59
2023/03/24 07:55:14;;;;;;;19.25;3.63;;;10.50;99.90;;;;;;5092236;28;20071;-59
2023/03/24 07:57:41;;;;;;;22.42;4.05;;;10.40;99.90;;;;;;5095042;28;20036;-59
2023/03/24 08:00:16;;;;;;;18.02;3.90;;;10.60;99.90;;;;;;5085627;28;20045;-59
2023/03/24 08:02:44;;;;;;;19.98;3.80;;;10.50;99.90;;;;;;5074956;28;20044;-59
2023/03/24 08:05:13;;;;;;;19.15;3.17;;;10.50;99.90;;;;;;5074813;28;20037;-59
2023/03/24 08:07:42;;;;;;;14.77;3.63;;;10.60;99.90;;;;;;5074631;28;20119;-61
2023/03/24 08:10:12;;;;;;;19.77;3.90;;;10.50;99.90;;;;;;5074585;28;20382;-61
2023/03/24 08:12:38;;;;;;;14.40;3.33;;;10.60;99.90;;;;;;5074407;28;20363;-61
2023/03/24 08:15:06;;;;;;;20.55;3.30;;;10.60;99.90;;;;;;5074615;28;20093;-61
2023/03/24 08:17:32;;;;;;;19.77;4.32;;;10.50;99.90;;;;;;5087261;28;20070;-61
2023/03/24 08:19:58;;;;;;;21.98;3.67;;;10.60;99.90;;;;;;5092399;28;20092;-61
2023/03/24 08:22:24;;;;;;;27.83;4.45;;;10.70;99.90;;;;;;5100603;28;20482;-61
2023/03/24 08:24:49;;;;;;;18.63;3.15;;;10.70;99.90;;;;;;5109019;28;20070;-61
2023/03/24 08:27:15;;;;;;;19.67;3.30;;;10.80;99.90;;;;;;5097405;28;20048;-62
2023/03/24 08:29:42;;;;;;;21.85;3.47;;;10.90;99.90;;;;;;5108716;28;20071;-62
2023/03/24 08:32:07;;;;;;;20.55;3.90;;;11.00;99.90;;;;;;5102559;28;20031;-62
2023/03/24 08:34:33;;;;;;;20.08;3.35;;;10.90;99.90;;;;;;5100021;28;20088;-62
2023/03/24 08:36:59;;;;;;;16.80;3.22;;;10.90;99.90;;;;;;5109524;28;20070;-61
2023/03/24 08:39:24;;;;;;;18.98;4.10;;;11.00;99.90;;;;;;5096945;28;20046;-62
2023/03/24 08:41:50;;;;;;;22.38;4.13;;;11.10;99.90;;;;;;5107120;28;20047;-62
2023/03/24 08:44:16;;;;;;;16.73;4.25;;;11.10;99.90;;;;;;5103592;28;20042;-62
2023/03/24 08:46:42;;;;;;;19.10;3.42;;;11.10;99.90;;;;;;5099657;28;20089;-61
2023/03/24 08:49:08;;;;;;;18.65;3.63;;;11.20;99.90;;;;;;5109526;28;20477;-62
2023/03/24 08:51:34;;;;;;;19.48;3.33;;;11.40;99.90;;;;;;5092150;28;20051;-61
2023/03/24 08:54:00;;;;;;;18.58;3.33;;;11.80;99.90;;;;;;5101079;28;20032;-61
2023/03/24 08:56:26;;;;;;;19.30;3.60;;;12.10;99.90;;;;;;5101998;28;20417;-61
2023/03/24 08:58:52;;;;;;;23.02;4.82;;;12.00;99.90;;;;;;5108147;28;20047;-61
2023/03/24 09:01:21;;;;;;;20.00;4.45;;;11.80;99.90;;;;;;5096349;28;20039;-61
2023/03/24 09:03:47;;;;;;;;;;;11.80;99.90;;;;;;5106388;28;20131;-61
2023/03/24 09:06:14;;;;;;;18.48;4.38;;;11.90;99.90;;;;;;5102580;28;20433;-62
2023/03/24 09:08:40;;;;;;;18.35;4.63;;;12.10;99.90;;;;;;5098683;28;20028;-61
2023/03/24 09:11:06;;;;;;;21.65;4.30;;;12.20;99.90;;;;;;5105017;28;20032;-62
2023/03/24 09:13:32;;;;;;;17.13;3.28;;;12.20;99.90;;;;;;5109204;28;20036;-61
2023/03/24 09:16:00;;;;;;;18.50;3.85;;;12.20;99.90;;;;;;5100191;28;20042;-62
2023/03/24 09:18:27;;;;;;;15.20;3.90;;;12.30;99.90;;;;;;5101300;28;20028;-61
2023/03/24 09:20:52;;;;;;;19.25;3.00;;;12.40;99.90;;;;;;5107800;28;20039;-61
2023/03/24 09:23:20;;;;;;;16.05;3.13;;;12.20;99.90;;;;;;5096024;28;20127;-62
2023/03/24 09:25:48;;;;;;;24.20;4.07;;;12.20;99.90;;;;;;5106770;28;20127;-61
2023/03/24 09:28:15;;;;;;;20.95;3.92;;;12.60;99.90;;;;;;5091328;28;20036;-61
2023/03/24 09:30:41;;;;;;;17.45;3.20;;;13.00;99.90;;;;;;5106109;28;20066;-61
2023/03/24 09:33:06;;;;;;;18.90;3.38;;;13.40;99.90;;;;;;5095649;27;20040;-61
2023/03/24 09:35:32;;;;;;;19.85;3.45;;;13.60;99.90;;;;;;5109040;28;20097;-61
2023/03/24 09:37:58;;;;;;;14.75;3.38;;;13.80;99.90;;;;;;5100277;28;20031;-62
2023/03/24 09:40:26;;;;;;;13.25;3.35;;;14.00;99.90;;;;;;5081901;28;20117;-62
2023/03/24 09:43:05;;;;;;;18.33;4.25;;;13.80;99.90;;;;;;5107537;28;20501;-62
2023/03/24 09:45:36;;;;;;;21.58;2.88;;;13.90;99.90;;;;;;5079685;28;20078;-63
2023/03/24 09:48:32;;;;;;;17.45;3.88;;;13.90;99.90;;;;;;5102562;28;20051;-64
2023/03/24 09:51:03;;;;;;;16.67;3.17;;;13.80;99.90;;;;;;5108233;28;20145;-61
2023/03/24 09:53:43;;;;;;;21.13;3.28;;;13.60;99.90;;;;;;5078991;28;20042;-62
2023/03/24 09:56:21;;;;;;;17.42;3.25;;;13.20;99.90;;;;;;5102874;28;20040;-61
2023/03/24 09:59:14;;;;;;;21.70;3.75;;;13.10;99.90;;;;;;5106196;28;20485;-60
2023/03/24 10:01:40;;;;;;;16.58;3.42;;;13.10;99.90;;;;;;5082004;28;20050;-60
2023/03/24 10:04:17;;;;;;;21.88;3.10;;;13.20;99.90;;;;;;5108362;28;20490;-61
2023/03/24 10:06:43;;;;;;;18.33;3.47;;;13.30;99.90;;;;;;5098178;28;20036;-62
2023/03/24 10:09:28;;;;;;;15.75;3.20;;;13.50;99.90;;;;;;5108531;28;20058;-62
2023/03/24 10:12:12;;;;;;;23.67;4.07;;;13.50;99.90;;;;;;5098896;28;20038;-62
2023/03/24 10:15:10;;;;;;;13.07;2.90;;;13.50;99.90;;;;;;5098719;28;20075;-62
2023/03/24 10:17:47;;;;;;;14.02;2.60;;;13.30;99.90;;;;;;5013913;28;20053;-62
2023/03/24 10:20:28;;;;;;;16.65;3.10;;;13.60;99.90;;;;;;5019384;28;20038;-63
2023/03/24 10:23:21;;;;;;;12.68;2.65;;;13.90;99.90;;;;;;5024580;28;20064;-62
2023/03/24 10:25:53;;;;;;;18.70;3.45;;;13.90;99.90;;;;;;4999144;28;20137;-62
2023/03/24 10:28:33;;;;;;;13.98;3.08;;;14.00;99.90;;;;;;5002443;28;20057;-62
2023/03/24 10:31:04;;;;;;;17.08;3.10;;;13.90;99.90;;;;;;5025148;28;20049;-60
2023/03/24 10:33:30;;;;;;;19.50;3.05;;;13.60;99.90;;;;;;4980928;28;20040;-62
2023/03/24 10:36:08;;;;;;;13.63;3.20;;;13.70;99.90;;;;;;5022093;28;20148;-62
2023/03/24 10:38:34;;;;;;;15.02;2.80;;;13.80;99.90;;;;;;5021843;28;20112;-62
2023/03/24 10:41:01;;;;;;;13.60;2.50;;;13.90;99.90;;;;;;5013239;28;20054;-62
2023/03/24 10:43:28;;;;;;;13.00;2.63;;;14.00;99.90;;;;;;5025641;28;20085;-63
2023/03/24 10:45:56;;;;;;;20.48;2.95;;;13.90;99.90;;;;;;5016649;28;20116;-62
2023/03/24 10:48:41;;;;;;;15.68;3.63;;;13.90;99.90;;;;;;5018497;28;20197;-63
2023/03/24 10:51:25;;;;;;;20.58;5.00;;;13.90;99.90;;;;;;5009085;28;20056;-62
2023/03/24 10:54:28;;;;;;;14.20;4.07;;;13.90;99.90;;;;;;5043202;28;20405;-62
2023/03/24 10:57:01;;;;;;;15.90;3.20;;;14.00;99.90;;;;;;5095528;28;20433;-62
2023/03/24 10:59:31;;;;;;;14.27;3.22;;;14.10;99.90;;;;;;5108121;28;20050;-63
2023/03/24 11:02:09;;;;;;;13.35;2.92;;;14.20;99.90;;;;;;5099290;28;20111;-62
2023/03/24 11:04:42;;;;;;;13.25;2.55;;;14.30;99.90;;;;;;5098811;28;20170;-62
2023/03/24 11:07:22;;;;;;;14.05;2.38;;;14.50;99.90;;;;;;5108250;28;20095;-62
2023/03/24 11:10:04;;;;;;;13.02;2.63;;;14.40;99.90;;;;;;5097513;28;20473;-62
2023/03/24 11:12:32;;;;;;;15.32;3.03;;;14.40;99.90;;;;;;5106950;28;20043;-62
2023/03/24 11:15:12;;;;;;;12.20;2.85;;;14.40;99.90;;;;;;5095393;28;20044;-62
2023/03/24 11:17:37;;;;;;;;;;;14.50;99.90;;;;;;5081038;28;20501;-62
2023/03/24 11:20:14;;;;;;;14.02;2.47;;;14.50;99.90;;;;;;5102722;28;19916;-63
2023/03/24 11:22:40;;;;;;;10.80;2.45;;;14.60;99.90;;;;;;5105100;28;20393;-62
2023/03/24 11:25:12;;;;;;;16.02;2.70;;;14.80;99.90;;;;;;5106957;28;20047;-61
2023/03/24 11:27:44;;;;;;;17.20;2.65;;;15.00;99.90;;;;;;5095784;28;20089;-62
2023/03/24 11:30:13;;;;;;;12.13;2.72;;;14.90;99.90;;;;;;5099855;28;20133;-62
2023/03/24 11:32:45;;;;;;;12.35;3.47;;;15.00;99.90;;;;;;5108198;28;20051;-62
2023/03/24 11:35:18;;;;;;;14.27;2.90;;;15.00;99.90;;;;;;5096551;28;20425;-62
2023/03/24 11:37:45;;;;;;;17.08;2.60;;;15.10;99.90;;;;;;5109084;28;20096;-62
2023/03/24 11:40:16;;;;;;;14.27;2.78;;;15.40;99.90;;;;;;5101950;28;20033;-62
2023/03/24 11:42:46;;;;;;;20.30;3.88;;;15.50;99.90;;;;;;5092997;28;20052;-62
2023/03/24 11:45:53;;;;;;;15.82;2.97;;;15.40;99.90;;;;;;5111003;28;20509;-62
2023/03/24 11:48:44;;;;;;;15.27;3.72;;;14.90;99.90;;;;;;5093985;28;20522;-62
2023/03/24 11:51:12;;;;;;;11.30;3.22;;;14.60;99.90;;;;;;5097989;28;20048;-60
2023/03/24 11:53:45;;;;;;;14.50;2.70;;;14.20;99.90;;;;;;5109488;28;20040;-61
2023/03/24 11:56:41;;;;;;;11.57;2.92;;;14.10;99.90;;;;;;5103489;28;20474;-61
2023/03/24 11:59:19;;;;;;;14.07;2.42;;;14.20;99.90;;;;;;5096372;28;20055;-61
2023/03/24 12:02:17;;;;;;;9.80;2.22;;;14.30;99.90;;;;;;5108451;28;20473;-62
2023/03/24 12:05:12;;;;;;;10.63;2.50;;;14.30;99.90;;;;;;5025464;28;20064;-62
2023/03/24 12:07:44;;;;;;;11.65;2.72;;;14.30;99.90;;;;;;5016485;28;20045;-62
2023/03/24 12:10:18;;;;;;;12.25;2.95;;;14.30;99.90;;;;;;5022295;28;20042;-62
2023/03/24 12:12:56;;;;;;;13.30;2.85;;;14.50;99.90;;;;;;5025303;28;20495;-62
2023/03/24 12:15:30;;;;;;;13.30;2.97;;;14.50;99.90;;;;;;5015100;28;20104;-62
2023/03/24 12:18:18;;;;;;;11.85;3.00;;;14.60;99.90;;;;;;5024316;28;20052;-62
2023/03/24 12:21:19;;;;;;;9.55;2.15;;;15.10;99.90;;;;;;5025556;28;20172;-62
2023/03/24 12:23:58;;;;;;;;;;;15.10;99.90;;;;;;5003866;28;20041;-62
2023/03/24 12:26:28;;;;;;;17.35;2.92;;;15.10;99.90;;;;;;5019988;28;20385;-62
2023/03/24 12:28:59;;;;;;;12.98;3.30;;;15.10;99.90;;;;;;5026522;28;20049;-61
2023/03/24 12:31:36;;;;;;;11.23;2.47;;;15.30;99.90;;;;;;5014701;28;20084;-63
2023/03/24 12:34:41;;;;;;;13.57;2.75;;;15.10;99.90;;;;;;5022928;28;20056;-62
2023/03/24 12:37:21;;;;;;;12.70;3.42;;;15.10;99.90;;;;;;5027530;28;20119;-63
2023/03/24 12:40:07;;;;;;;13.00;2.17;;;14.90;99.90;;;;;;5017259;28;20120;-63
2023/03/24 12:42:46;;;;;;;15.48;2.90;;;14.90;99.90;;;;;;5100623;28;20066;-62
2023/03/24 12:45:37;;;;;;;16.25;3.00;;;15.00;99.90;;;;;;5110059;28;20537;-62
2023/03/24 12:48:18;;;;;;;15.00;3.72;;;15.10;99.90;;;;;;5101727;28;20039;-62
2023/03/24 12:50:55;;;;;;;15.05;2.70;;;15.10;99.90;;;;;;5099360;28;20080;-63
2023/03/24 12:53:55;;;;;;;11.20;2.97;;;15.50;99.90;;;;;;5109777;28;20500;-62
2023/03/24 12:56:33;;;;;;;12.52;3.08;;;15.60;99.90;;;;;;5103942;28;20079;-62
2023/03/24 12:59:30;;;;;;;13.93;3.03;;;15.30;99.90;;;;;;5096993;28;20036;-61
2023/03/24 13:02:18;;;;;;;15.57;3.03;;;15.30;99.90;;;;;;5087774;28;20036;-63
2023/03/24 13:04:46;;;;;;;13.40;2.67;;;15.60;99.90;;;;;;5098929;28;20044;-62
2023/03/24 13:07:17;;;;;;;12.27;2.80;;;15.60;99.90;;;;;;5109497;28;20040;-61